Lumberton, North Carolina
Current Conditions -  °F | °C
As of 7:54 PM on Monday 20 Oct 2014 (Local Time) from KLBT Reporting Station
Scattered Clouds Scattered Clouds  
Wind Chill: 65°   Ceiling: Unl
Heat Index: 65°   Visibility: 10mi
Dew Point: 57°   Wind: 3mph
Humidity: 75%   Direction: 210°SSW
Pressure: 30"   Gusts: NA
Location:  34.62°N, 79.01°W
Report Text: KLBT 202354Z AUTO 21003KT 10SM SCT043 SCT070 18/14 A3000 RMK AO2 SLP160 T01830139 10244 20183 53006
Loading
Personal Weather Stations






























Interactive Weather Map New forecast layout! Learn more

10-Day Weather Forecast

Advertisements
Track Severe Weather on mobile